Domov               UVHVVR             MKGP            O straneh              
ZDRAVSTVENO VARSTVO RASTLIN
  MREŽA AGROMET. POSTAJ
 ► PROGNOSTIČNA OBVESTILA
AGROMETEOROLOŠKI PODATKI -
ARSO
OBVLADOVANJE TVEGANJ ZARADI
NEUGODNIH VREMENSKIH RAZMER
  ► NARAVNE NESREČE
  ► SUŠA/MOČA
  ► NAMAKANJE
  ► ŽLED (gozdarstvo)
KARTOGRAFSKI PRIKAZI
SPLETNE POVEZAVE
PROJEKTI IN PUBLIKACIJE

AGROMETEOROLOŠKA MREŽA: VREMENSKE POSTAJE IN FENOLOŠKA OPAZOVANJA

Pregled podatkov za lokacijo Zimica, meteorološka postaja 27472

Pregled senzorjev na lokaciji

ID Ime Zadnja
vrednost
Datum
zadnje
spremembe
Tip
senzorja
1713 Temperatura 2 m (°C) 14,31 °C 12.12.2017 01:00 Generic -40 - +60 °C
1714 Relativna vlaga 2 m (% RH) 53,02 % RH 12.12.2017 01:00 Generic 0 - 100 %
1715 Padavine (mm) 0 mm 12.12.2017 01:00 Generic 0.2 mm

Pregled podatkov zadnjih 24 ur

Zap.
št.
Datum in čas Zimica
Padavine Relativna
vlaga
2
m
Temperatura
2
m
0 12.12.2017 01:00 0 53,02 14,31
1 12.12.2017 00:30 0 54,82 14,04
2 12.12.2017 00:00 0 54,63 13,99
3 11.12.2017 23:30 0 54,65 13,85
4 11.12.2017 23:00 0 54,7 13,82
5 11.12.2017 22:30 0 55,85 13,36
6 11.12.2017 22:00 0 57,26 12,87
7 11.12.2017 21:30 0 56,41 13,06
8 11.12.2017 21:00 0 53,92 13,72
9 11.12.2017 20:30 0 54,02 13,75
10 11.12.2017 20:00 0 53,58 13,87
11 11.12.2017 19:30 0 54,26 13,75
12 11.12.2017 19:00 0 58,22 12,82
13 11.12.2017 18:30 0 55,68 13,5
14 11.12.2017 18:00 0 56,73 13,33
15 11.12.2017 17:30 0 59,61 12,67
16 11.12.2017 17:00 0 61,1 12,36
17 11.12.2017 16:30 0 64,4 11,55
18 11.12.2017 16:00 0 74,97 8,99
19 11.12.2017 15:30 0 78,83 8,47
20 11.12.2017 15:00 0 79,17 8,6
21 11.12.2017 14:30 0 74,6 8,62
22 11.12.2017 14:00 0 73,89 8,4
23 11.12.2017 13:30 0 78,05 7,3
24 11.12.2017 13:00 0 76,17 7,55
25 11.12.2017 12:30 0 78,46 6,72
26 11.12.2017 12:00 0 78,95 6,69
27 11.12.2017 11:30 0 74,31 7,72
28 11.12.2017 11:00 0 81,12 5,37
29 11.12.2017 10:30 0 78,56 5,81
30 11.12.2017 10:00 0 73,36 7,16
31 11.12.2017 09:30 0 76,02 6,59
32 11.12.2017 09:00 0 78,14 6,03
33 11.12.2017 08:30 0 78,97 5,89
34 11.12.2017 08:00 0 86,57 3,44
35 11.12.2017 07:30 0 85,69 3,71
36 11.12.2017 07:00 0 85,49 4
37 11.12.2017 06:30 0 86,3 3,64
38 11.12.2017 06:00 0 84,42 3,49
39 11.12.2017 05:30 0 85,32 3,17
40 11.12.2017 05:00 0 85,32 3,03
41 11.12.2017 04:30 0 84,54 3,3
42 11.12.2017 04:00 0 84,76 3,17
43 11.12.2017 03:30 0 85,62 2,86
44 11.12.2017 03:00 0 84,91 2,93
45 11.12.2017 02:30 0 84,1 2,98
46 11.12.2017 02:00 0 83,25 2,88
© 2011 Ministrstvo za kmetijstvo, gozdarstvo in prehrano. Vse pravice pridržane.